sensor_id;sensor_type;location;lat;lon;timestamp;P1;durP1;ratioP1;P2;durP2;ratioP2
20002;SDS011;10162;41.600;23.806;2023-06-24T00:02:53;15.50;;;13.73;;
20002;SDS011;10162;41.600;23.806;2023-06-24T00:05:21;16.73;;;14.93;;
20002;SDS011;10162;41.600;23.806;2023-06-24T00:11:40;18.60;;;16.63;;
20002;SDS011;10162;41.600;23.806;2023-06-24T00:14:08;16.87;;;15.07;;
20002;SDS011;10162;41.600;23.806;2023-06-24T00:16:34;19.57;;;16.00;;
20002;SDS011;10162;41.600;23.806;2023-06-24T00:22:56;18.60;;;14.77;;
20002;SDS011;10162;41.600;23.806;2023-06-24T00:25:22;18.70;;;15.37;;
20002;SDS011;10162;41.600;23.806;2023-06-24T00:31:42;16.43;;;14.73;;
20002;SDS011;10162;41.600;23.806;2023-06-24T00:34:09;15.77;;;14.07;;
20002;SDS011;10162;41.600;23.806;2023-06-24T00:36:35;16.77;;;14.97;;
20002;SDS011;10162;41.600;23.806;2023-06-24T00:42:55;18.17;;;15.43;;
20002;SDS011;10162;41.600;23.806;2023-06-24T00:45:27;19.30;;;16.33;;
20002;SDS011;10162;41.600;23.806;2023-06-24T00:51:49;17.30;;;15.40;;
20002;SDS011;10162;41.600;23.806;2023-06-24T00:54:16;20.13;;;16.07;;
20002;SDS011;10162;41.600;23.806;2023-06-24T00:56:42;18.47;;;15.13;;
20002;SDS011;10162;41.600;23.806;2023-06-24T01:03:03;19.50;;;14.70;;
20002;SDS011;10162;41.600;23.806;2023-06-24T01:05:30;18.93;;;15.97;;
20002;SDS011;10162;41.600;23.806;2023-06-24T01:12:24;17.50;;;14.77;;
20002;SDS011;10162;41.600;23.806;2023-06-24T01:14:49;20.03;;;15.67;;
20002;SDS011;10162;41.600;23.806;2023-06-24T01:21:09;18.43;;;15.33;;
20002;SDS011;10162;41.600;23.806;2023-06-24T01:32:59;16.23;;;14.53;;
20002;SDS011;10162;41.600;23.806;2023-06-24T01:35:31;17.50;;;15.37;;
20002;SDS011;10162;41.600;23.806;2023-06-24T01:41:59;17.37;;;14.93;;
20002;SDS011;10162;41.600;23.806;2023-06-24T01:44:31;16.90;;;15.10;;
20002;SDS011;10162;41.600;23.806;2023-06-24T01:46:59;20.93;;;15.90;;
20002;SDS011;10162;41.600;23.806;2023-06-24T01:49:28;20.47;;;15.23;;
20002;SDS011;10162;41.600;23.806;2023-06-24T01:51:57;21.17;;;15.97;;
20002;SDS011;10162;41.600;23.806;2023-06-24T01:54:26;16.53;;;14.67;;
20002;SDS011;10162;41.600;23.806;2023-06-24T01:56:57;19.60;;;15.50;;
20002;SDS011;10162;41.600;23.806;2023-06-24T01:59:25;19.33;;;14.97;;
20002;SDS011;10162;41.600;23.806;2023-06-24T02:01:53;20.90;;;16.07;;
20002;SDS011;10162;41.600;23.806;2023-06-24T02:04:20;19.33;;;16.47;;
20002;SDS011;10162;41.600;23.806;2023-06-24T02:06:48;19.23;;;15.33;;
20002;SDS011;10162;41.600;23.806;2023-06-24T02:09:21;21.10;;;16.20;;
20002;SDS011;10162;41.600;23.806;2023-06-24T02:11:49;20.13;;;15.80;;
20002;SDS011;10162;41.600;23.806;2023-06-24T02:14:16;19.27;;;15.60;;
20002;SDS011;10162;41.600;23.806;2023-06-24T02:16:44;22.13;;;16.23;;
20002;SDS011;10162;41.600;23.806;2023-06-24T02:23:07;17.37;;;14.97;;
20002;SDS011;10162;41.600;23.806;2023-06-24T02:25:34;20.30;;;15.60;;
20002;SDS011;10162;41.600;23.806;2023-06-24T02:31:57;18.00;;;15.10;;
20002;SDS011;10162;41.600;23.806;2023-06-24T02:34:26;16.83;;;15.10;;
20002;SDS011;10162;41.600;23.806;2023-06-24T02:36:52;20.07;;;15.83;;
20002;SDS011;10162;41.600;23.806;2023-06-24T02:42:24;19.03;;;16.17;;
20002;SDS011;10162;41.600;23.806;2023-06-24T02:44:50;19.73;;;16.03;;
20002;SDS011;10162;41.600;23.806;2023-06-24T02:51:11;18.30;;;16.30;;
20002;SDS011;10162;41.600;23.806;2023-06-24T02:53:40;18.43;;;16.43;;
20002;SDS011;10162;41.600;23.806;2023-06-24T02:56:09;19.67;;;16.20;;
20002;SDS011;10162;41.600;23.806;2023-06-24T03:02:32;19.33;;;14.70;;
20002;SDS011;10162;41.600;23.806;2023-06-24T03:04:58;22.93;;;16.53;;
20002;SDS011;10162;41.600;23.806;2023-06-24T03:11:22;17.80;;;15.67;;
20002;SDS011;10162;41.600;23.806;2023-06-24T03:13:48;18.20;;;15.80;;
20002;SDS011;10162;41.600;23.806;2023-06-24T03:16:19;21.87;;;16.07;;
20002;SDS011;10162;41.600;23.806;2023-06-24T03:23:05;20.17;;;15.50;;
20002;SDS011;10162;41.600;23.806;2023-06-24T03:25:33;20.03;;;16.67;;
20002;SDS011;10162;41.600;23.806;2023-06-24T03:31:53;18.43;;;15.97;;
20002;SDS011;10162;41.600;23.806;2023-06-24T03:34:22;19.33;;;16.90;;
20002;SDS011;10162;41.600;23.806;2023-06-24T03:36:48;20.27;;;16.63;;
20002;SDS011;10162;41.600;23.806;2023-06-24T03:43:08;18.70;;;16.33;;
20002;SDS011;10162;41.600;23.806;2023-06-24T03:45:37;18.20;;;16.07;;
20002;SDS011;10162;41.600;23.806;2023-06-24T03:51:57;21.27;;;16.63;;
20002;SDS011;10162;41.600;23.806;2023-06-24T03:54:24;20.03;;;17.13;;
20002;SDS011;10162;41.600;23.806;2023-06-24T03:56:49;21.57;;;18.07;;
20002;SDS011;10162;41.600;23.806;2023-06-24T04:03:10;20.10;;;15.93;;
20002;SDS011;10162;41.600;23.806;2023-06-24T04:05:38;18.67;;;15.77;;
20002;SDS011;10162;41.600;23.806;2023-06-24T04:11:57;20.77;;;16.97;;
20002;SDS011;10162;41.600;23.806;2023-06-24T04:14:31;21.03;;;16.27;;
20002;SDS011;10162;41.600;23.806;2023-06-24T04:16:58;19.50;;;17.30;;
20002;SDS011;10162;41.600;23.806;2023-06-24T04:19:24;17.03;;;14.87;;
20002;SDS011;10162;41.600;23.806;2023-06-24T04:21:50;17.23;;;15.37;;
20002;SDS011;10162;41.600;23.806;2023-06-24T04:24:17;21.23;;;15.53;;
20002;SDS011;10162;41.600;23.806;2023-06-24T04:26:42;18.30;;;16.30;;
20002;SDS011;10162;41.600;23.806;2023-06-24T04:33:01;19.93;;;16.33;;
20002;SDS011;10162;41.600;23.806;2023-06-24T04:35:27;21.37;;;17.73;;
20002;SDS011;10162;41.600;23.806;2023-06-24T04:41:47;24.20;;;16.23;;
20002;SDS011;10162;41.600;23.806;2023-06-24T04:44:15;20.43;;;18.03;;
20002;SDS011;10162;41.600;23.806;2023-06-24T04:46:40;22.23;;;18.63;;
20002;SDS011;10162;41.600;23.806;2023-06-24T04:53:01;19.20;;;17.17;;
20002;SDS011;10162;41.600;23.806;2023-06-24T04:55:29;20.33;;;18.13;;
20002;SDS011;10162;41.600;23.806;2023-06-24T05:01:49;23.30;;;18.48;;
20002;SDS011;10162;41.600;23.806;2023-06-24T05:04:16;24.70;;;20.92;;
20002;SDS011;10162;41.600;23.806;2023-06-24T05:06:42;33.25;;;23.48;;
20002;SDS011;10162;41.600;23.806;2023-06-24T05:13:27;28.70;;;21.70;;
20002;SDS011;10162;41.600;23.806;2023-06-24T05:15:53;27.88;;;21.25;;
20002;SDS011;10162;41.600;23.806;2023-06-24T05:22:13;22.08;;;17.25;;
20002;SDS011;10162;41.600;23.806;2023-06-24T05:24:39;21.38;;;17.35;;
20002;SDS011;10162;41.600;23.806;2023-06-24T05:27:06;26.90;;;20.42;;
20002;SDS011;10162;41.600;23.806;2023-06-24T05:29:33;21.42;;;17.80;;
20002;SDS011;10162;41.600;23.806;2023-06-24T05:31:59;24.70;;;19.20;;
20002;SDS011;10162;41.600;23.806;2023-06-24T05:34:27;20.98;;;16.90;;
20002;SDS011;10162;41.600;23.806;2023-06-24T05:36:53;23.13;;;17.08;;
20002;SDS011;10162;41.600;23.806;2023-06-24T05:43:14;20.33;;;17.77;;
20002;SDS011;10162;41.600;23.806;2023-06-24T05:45:41;23.42;;;18.60;;
20002;SDS011;10162;41.600;23.806;2023-06-24T05:52:00;19.08;;;16.02;;
20002;SDS011;10162;41.600;23.806;2023-06-24T05:54:26;20.65;;;17.15;;
20002;SDS011;10162;41.600;23.806;2023-06-24T05:56:52;19.25;;;17.20;;
20002;SDS011;10162;41.600;23.806;2023-06-24T06:03:13;19.40;;;17.30;;
20002;SDS011;10162;41.600;23.806;2023-06-24T06:05:40;22.08;;;17.75;;
20002;SDS011;10162;41.600;23.806;2023-06-24T06:12:26;19.90;;;17.05;;
20002;SDS011;10162;41.600;23.806;2023-06-24T06:14:53;19.77;;;17.67;;
20002;SDS011;10162;41.600;23.806;2023-06-24T06:21:12;20.13;;;15.43;;
20002;SDS011;10162;41.600;23.806;2023-06-24T06:23:38;17.98;;;16.08;;
20002;SDS011;10162;41.600;23.806;2023-06-24T06:26:04;18.40;;;16.52;;
20002;SDS011;10162;41.600;23.806;2023-06-24T06:32:24;20.30;;;16.65;;
20002;SDS011;10162;41.600;23.806;2023-06-24T06:34:50;19.58;;;16.77;;
20002;SDS011;10162;41.600;23.806;2023-06-24T06:41:10;16.65;;;14.82;;
20002;SDS011;10162;41.600;23.806;2023-06-24T06:43:36;17.10;;;15.40;;
20002;SDS011;10162;41.600;23.806;2023-06-24T06:46:03;15.57;;;13.88;;
20002;SDS011;10162;41.600;23.806;2023-06-24T06:52:26;17.08;;;15.35;;
20002;SDS011;10162;41.600;23.806;2023-06-24T06:54:54;17.85;;;15.93;;
20002;SDS011;10162;41.600;23.806;2023-06-24T07:01:14;18.45;;;15.38;;
20002;SDS011;10162;41.600;23.806;2023-06-24T07:03:40;20.88;;;16.75;;
20002;SDS011;10162;41.600;23.806;2023-06-24T07:06:06;20.35;;;18.38;;
20002;SDS011;10162;41.600;23.806;2023-06-24T07:12:39;19.17;;;17.27;;
20002;SDS011;10162;41.600;23.806;2023-06-24T07:15:06;19.58;;;17.48;;
20002;SDS011;10162;41.600;23.806;2023-06-24T07:21:33;20.20;;;17.92;;
20002;SDS011;10162;41.600;23.806;2023-06-24T07:24:11;19.13;;;17.08;;
20002;SDS011;10162;41.600;23.806;2023-06-24T07:26:37;25.58;;;16.75;;
20002;SDS011;10162;41.600;23.806;2023-06-24T07:29:08;18.77;;;16.83;;
20002;SDS011;10162;41.600;23.806;2023-06-24T07:31:34;18.27;;;16.45;;
20002;SDS011;10162;41.600;23.806;2023-06-24T07:34:01;20.15;;;17.30;;
20002;SDS011;10162;41.600;23.806;2023-06-24T07:36:26;17.63;;;15.82;;
20002;SDS011;10162;41.600;23.806;2023-06-24T07:38:53;19.08;;;16.60;;
20002;SDS011;10162;41.600;23.806;2023-06-24T07:41:19;17.90;;;16.00;;
20002;SDS011;10162;41.600;23.806;2023-06-24T07:43:44;19.52;;;17.58;;
20002;SDS011;10162;41.600;23.806;2023-06-24T07:46:10;19.25;;;16.65;;
20002;SDS011;10162;41.600;23.806;2023-06-24T07:48:38;17.90;;;15.80;;
20002;SDS011;10162;41.600;23.806;2023-06-24T07:51:03;17.33;;;15.45;;
20002;SDS011;10162;41.600;23.806;2023-06-24T07:53:30;18.13;;;16.42;;
20002;SDS011;10162;41.600;23.806;2023-06-24T07:55:56;18.65;;;16.55;;
20002;SDS011;10162;41.600;23.806;2023-06-24T07:58:22;16.25;;;14.65;;
20002;SDS011;10162;41.600;23.806;2023-06-24T08:00:48;16.63;;;15.05;;
20002;SDS011;10162;41.600;23.806;2023-06-24T08:03:17;14.23;;;12.77;;
20002;SDS011;10162;41.600;23.806;2023-06-24T08:05:42;17.52;;;15.73;;
20002;SDS011;10162;41.600;23.806;2023-06-24T08:08:09;17.58;;;15.18;;
20002;SDS011;10162;41.600;23.806;2023-06-24T08:10:35;16.55;;;14.88;;
20002;SDS011;10162;41.600;23.806;2023-06-24T08:13:02;16.67;;;15.05;;
20002;SDS011;10162;41.600;23.806;2023-06-24T08:15:28;16.45;;;14.80;;
20002;SDS011;10162;41.600;23.806;2023-06-24T08:17:55;14.90;;;13.40;;
20002;SDS011;10162;41.600;23.806;2023-06-24T08:20:21;17.52;;;14.05;;
20002;SDS011;10162;41.600;23.806;2023-06-24T08:22:49;17.15;;;14.30;;
20002;SDS011;10162;41.600;23.806;2023-06-24T08:25:15;15.27;;;13.23;;
20002;SDS011;10162;41.600;23.806;2023-06-24T08:27:44;14.63;;;13.13;;
20002;SDS011;10162;41.600;23.806;2023-06-24T08:30:12;13.18;;;11.98;;
20002;SDS011;10162;41.600;23.806;2023-06-24T08:32:41;15.27;;;13.60;;
20002;SDS011;10162;41.600;23.806;2023-06-24T08:35:10;13.07;;;11.77;;
20002;SDS011;10162;41.600;23.806;2023-06-24T08:40:06;13.23;;;11.95;;
20002;SDS011;10162;41.600;23.806;2023-06-24T08:42:32;12.75;;;11.57;;
20002;SDS011;10162;41.600;23.806;2023-06-24T08:44:59;13.80;;;12.43;;
20002;SDS011;10162;41.600;23.806;2023-06-24T08:51:19;12.55;;;11.32;;
20002;SDS011;10162;41.600;23.806;2023-06-24T08:53:50;15.00;;;12.07;;
20002;SDS011;10162;41.600;23.806;2023-06-24T08:56:16;13.40;;;12.10;;
20002;SDS011;10162;41.600;23.806;2023-06-24T09:01:11;14.35;;;12.50;;
20002;SDS011;10162;41.600;23.806;2023-06-24T09:03:39;13.90;;;12.35;;
20002;SDS011;10162;41.600;23.806;2023-06-24T09:06:05;13.57;;;12.15;;
20002;SDS011;10162;41.600;23.806;2023-06-24T09:12:26;12.82;;;11.52;;
20002;SDS011;10162;41.600;23.806;2023-06-24T09:14:53;11.55;;;10.48;;
20002;SDS011;10162;41.600;23.806;2023-06-24T09:21:13;12.43;;;11.13;;
20002;SDS011;10162;41.600;23.806;2023-06-24T09:23:39;13.38;;;12.07;;
20002;SDS011;10162;41.600;23.806;2023-06-24T09:26:06;12.82;;;11.63;;
20002;SDS011;10162;41.600;23.806;2023-06-24T09:32:30;12.70;;;11.43;;
20002;SDS011;10162;41.600;23.806;2023-06-24T09:34:57;12.68;;;11.57;;
20002;SDS011;10162;41.600;23.806;2023-06-24T09:40:36;12.57;;;11.40;;
20002;SDS011;10162;41.600;23.806;2023-06-24T09:43:04;17.08;;;12.27;;
20002;SDS011;10162;41.600;23.806;2023-06-24T09:45:30;13.32;;;11.27;;
20002;SDS011;10162;41.600;23.806;2023-06-24T09:51:50;12.52;;;11.43;;
20002;SDS011;10162;41.600;23.806;2023-06-24T09:54:24;13.48;;;11.43;;
20002;SDS011;10162;41.600;23.806;2023-06-24T09:56:53;14.52;;;11.65;;
20002;SDS011;10162;41.600;23.806;2023-06-24T10:03:14;13.07;;;11.60;;
20002;SDS011;10162;41.600;23.806;2023-06-24T10:05:40;18.08;;;12.02;;
20002;SDS011;10162;41.600;23.806;2023-06-24T10:12:00;12.73;;;11.43;;
20002;SDS011;10162;41.600;23.806;2023-06-24T10:14:26;13.07;;;11.75;;
20002;SDS011;10162;41.600;23.806;2023-06-24T10:17:00;14.55;;;12.40;;
20002;SDS011;10162;41.600;23.806;2023-06-24T10:19:27;13.10;;;11.88;;
20002;SDS011;10162;41.600;23.806;2023-06-24T10:21:53;13.48;;;11.02;;
20002;SDS011;10162;41.600;23.806;2023-06-24T10:24:29;12.82;;;11.50;;
20002;SDS011;10162;41.600;23.806;2023-06-24T10:30:19;14.77;;;10.95;;
20002;SDS011;10162;41.600;23.806;2023-06-24T10:32:45;11.98;;;10.82;;
20002;SDS011;10162;41.600;23.806;2023-06-24T10:35:22;12.75;;;11.40;;
20002;SDS011;10162;41.600;23.806;2023-06-24T10:41:44;12.85;;;11.52;;
20002;SDS011;10162;41.600;23.806;2023-06-24T10:44:15;13.38;;;12.07;;
20002;SDS011;10162;41.600;23.806;2023-06-24T10:46:42;12.98;;;11.77;;
20002;SDS011;10162;41.600;23.806;2023-06-24T10:53:12;12.25;;;11.02;;
20002;SDS011;10162;41.600;23.806;2023-06-24T10:55:39;13.75;;;10.85;;
20002;SDS011;10162;41.600;23.806;2023-06-24T11:01:58;11.35;;;10.32;;
20002;SDS011;10162;41.600;23.806;2023-06-24T11:04:26;12.30;;;11.15;;
20002;SDS011;10162;41.600;23.806;2023-06-24T11:07:01;11.98;;;10.88;;
20002;SDS011;10162;41.600;23.806;2023-06-24T11:09:29;12.38;;;11.18;;
20002;SDS011;10162;41.600;23.806;2023-06-24T11:11:54;12.73;;;11.48;;
20002;SDS011;10162;41.600;23.806;2023-06-24T11:14:22;12.57;;;11.35;;
20002;SDS011;10162;41.600;23.806;2023-06-24T11:16:47;12.23;;;11.05;;
20002;SDS011;10162;41.600;23.806;2023-06-24T11:23:08;12.13;;;11.05;;
20002;SDS011;10162;41.600;23.806;2023-06-24T11:25:40;11.98;;;10.88;;
20002;SDS011;10162;41.600;23.806;2023-06-24T11:32:02;12.57;;;9.93;;
20002;SDS011;10162;41.600;23.806;2023-06-24T11:34:28;11.63;;;10.45;;
20002;SDS011;10162;41.600;23.806;2023-06-24T11:36:55;11.45;;;10.35;;
20002;SDS011;10162;41.600;23.806;2023-06-24T11:39:22;11.75;;;10.55;;
20002;SDS011;10162;41.600;23.806;2023-06-24T11:41:52;11.95;;;10.73;;
20002;SDS011;10162;41.600;23.806;2023-06-24T11:44:19;11.88;;;10.68;;
20002;SDS011;10162;41.600;23.806;2023-06-24T11:46:46;12.18;;;10.88;;
20002;SDS011;10162;41.600;23.806;2023-06-24T11:53:42;11.85;;;10.60;;
20002;SDS011;10162;41.600;23.806;2023-06-24T11:56:11;13.85;;;11.02;;
20002;SDS011;10162;41.600;23.806;2023-06-24T12:01:17;11.77;;;10.68;;
20002;SDS011;10162;41.600;23.806;2023-06-24T12:03:43;12.27;;;11.05;;
20002;SDS011;10162;41.600;23.806;2023-06-24T12:06:08;13.25;;;11.30;;
20002;SDS011;10162;41.600;23.806;2023-06-24T12:12:28;11.77;;;10.70;;
20002;SDS011;10162;41.600;23.806;2023-06-24T12:32:26;11.60;;;10.50;;
20002;SDS011;10162;41.600;23.806;2023-06-24T12:38:09;11.88;;;9.85;;
20002;SDS011;10162;41.600;23.806;2023-06-24T12:40:35;12.05;;;10.95;;
20002;SDS011;10162;41.600;23.806;2023-06-24T12:46:56;11.75;;;9.68;;
20002;SDS011;10162;41.600;23.806;2023-06-24T12:49:22;12.30;;;11.00;;
20002;SDS011;10162;41.600;23.806;2023-06-24T12:51:48;12.60;;;11.40;;
20002;SDS011;10162;41.600;23.806;2023-06-24T12:58:09;11.20;;;10.10;;
20002;SDS011;10162;41.600;23.806;2023-06-24T13:00:35;13.95;;;10.77;;
20002;SDS011;10162;41.600;23.806;2023-06-24T14:57:20;12.50;;;9.23;;
20002;SDS011;10162;41.600;23.806;2023-06-24T14:59:49;10.93;;;8.70;;
20002;SDS011;10162;41.600;23.806;2023-06-24T15:15:02;15.07;;;11.10;;
20002;SDS011;10162;41.600;23.806;2023-06-24T15:21:23;12.57;;;9.47;;
20002;SDS011;10162;41.600;23.806;2023-06-24T15:23:51;12.00;;;8.73;;
20002;SDS011;10162;41.600;23.806;2023-06-24T15:30:10;21.17;;;16.13;;
20002;SDS011;10162;41.600;23.806;2023-06-24T15:32:37;36.60;;;31.67;;
20002;SDS011;10162;41.600;23.806;2023-06-24T15:35:04;15.53;;;11.70;;
20002;SDS011;10162;41.600;23.806;2023-06-24T15:37:31;16.93;;;11.40;;
20002;SDS011;10162;41.600;23.806;2023-06-24T15:39:57;20.90;;;12.07;;
20002;SDS011;10162;41.600;23.806;2023-06-24T15:42:23;16.97;;;11.70;;
20002;SDS011;10162;41.600;23.806;2023-06-24T15:44:48;15.53;;;11.53;;
20002;SDS011;10162;41.600;23.806;2023-06-24T15:51:11;13.57;;;10.63;;
20002;SDS011;10162;41.600;23.806;2023-06-24T15:53:41;13.93;;;11.17;;
20002;SDS011;10162;41.600;23.806;2023-06-24T16:00:01;16.17;;;13.03;;
20002;SDS011;10162;41.600;23.806;2023-06-24T16:02:32;19.40;;;13.43;;
20002;SDS011;10162;41.600;23.806;2023-06-24T16:04:58;31.33;;;21.40;;
20002;SDS011;10162;41.600;23.806;2023-06-24T16:11:18;14.03;;;11.40;;
20002;SDS011;10162;41.600;23.806;2023-06-24T16:13:45;13.97;;;11.73;;
20002;SDS011;10162;41.600;23.806;2023-06-24T16:20:05;15.47;;;12.30;;
20002;SDS011;10162;41.600;23.806;2023-06-24T16:22:32;13.50;;;11.57;;
20002;SDS011;10162;41.600;23.806;2023-06-24T16:24:58;15.67;;;11.60;;
20002;SDS011;10162;41.600;23.806;2023-06-24T16:31:19;49.63;;;25.77;;
20002;SDS011;10162;41.600;23.806;2023-06-24T16:33:47;32.73;;;18.07;;
20002;SDS011;10162;41.600;23.806;2023-06-24T16:40:07;16.80;;;11.77;;
20002;SDS011;10162;41.600;23.806;2023-06-24T16:42:33;17.23;;;12.77;;
20002;SDS011;10162;41.600;23.806;2023-06-24T16:44:59;27.93;;;15.70;;
20002;SDS011;10162;41.600;23.806;2023-06-24T16:51:22;14.53;;;10.57;;
20002;SDS011;10162;41.600;23.806;2023-06-24T16:53:49;14.10;;;10.90;;
20002;SDS011;10162;41.600;23.806;2023-06-24T17:00:09;14.27;;;12.20;;
20002;SDS011;10162;41.600;23.806;2023-06-24T17:02:37;17.40;;;12.67;;
20002;SDS011;10162;41.600;23.806;2023-06-24T17:05:06;16.80;;;12.70;;
20002;SDS011;10162;41.600;23.806;2023-06-24T17:10:08;18.43;;;12.13;;
20002;SDS011;10162;41.600;23.806;2023-06-24T17:12:40;12.23;;;10.47;;
20002;SDS011;10162;41.600;23.806;2023-06-24T17:15:06;16.43;;;11.80;;
20002;SDS011;10162;41.600;23.806;2023-06-24T17:17:44;13.97;;;11.07;;
20002;SDS011;10162;41.600;23.806;2023-06-24T17:20:13;16.63;;;12.17;;
20002;SDS011;10162;41.600;23.806;2023-06-24T17:22:38;14.90;;;11.20;;
20002;SDS011;10162;41.600;23.806;2023-06-24T17:25:07;17.37;;;11.73;;
20002;SDS011;10162;41.600;23.806;2023-06-24T17:27:42;14.43;;;11.17;;
20002;SDS011;10162;41.600;23.806;2023-06-24T17:30:07;13.60;;;10.70;;
20002;SDS011;10162;41.600;23.806;2023-06-24T17:32:34;14.63;;;9.90;;
20002;SDS011;10162;41.600;23.806;2023-06-24T17:35:02;14.77;;;10.17;;
20002;SDS011;10162;41.600;23.806;2023-06-24T17:40:52;12.83;;;10.03;;
20002;SDS011;10162;41.600;23.806;2023-06-24T17:43:18;12.63;;;9.83;;
20002;SDS011;10162;41.600;23.806;2023-06-24T17:49:41;13.30;;;9.57;;
20002;SDS011;10162;41.600;23.806;2023-06-24T17:52:14;12.63;;;10.10;;
20002;SDS011;10162;41.600;23.806;2023-06-24T17:54:42;14.20;;;9.57;;
20002;SDS011;10162;41.600;23.806;2023-06-24T18:01:10;18.03;;;10.30;;
20002;SDS011;10162;41.600;23.806;2023-06-24T18:04:00;13.77;;;9.83;;
20002;SDS011;10162;41.600;23.806;2023-06-24T18:06:29;16.07;;;10.07;;
20002;SDS011;10162;41.600;23.806;2023-06-24T18:08:59;14.63;;;9.83;;
20002;SDS011;10162;41.600;23.806;2023-06-24T18:11:29;15.33;;;10.50;;
20002;SDS011;10162;41.600;23.806;2023-06-24T18:13:55;11.20;;;9.70;;
20002;SDS011;10162;41.600;23.806;2023-06-24T18:19:24;14.30;;;10.53;;
20002;SDS011;10162;41.600;23.806;2023-06-24T18:21:50;14.77;;;10.23;;
20002;SDS011;10162;41.600;23.806;2023-06-24T18:24:16;11.53;;;10.13;;
20002;SDS011;10162;41.600;23.806;2023-06-24T18:29:41;14.63;;;9.53;;
20002;SDS011;10162;41.600;23.806;2023-06-24T18:32:09;14.83;;;10.47;;
20002;SDS011;10162;41.600;23.806;2023-06-24T18:34:36;13.93;;;10.67;;
20002;SDS011;10162;41.600;23.806;2023-06-24T18:37:04;16.43;;;11.63;;
20002;SDS011;10162;41.600;23.806;2023-06-24T18:39:31;13.23;;;10.37;;
20002;SDS011;10162;41.600;23.806;2023-06-24T18:41:56;21.13;;;12.33;;
20002;SDS011;10162;41.600;23.806;2023-06-24T18:44:23;18.53;;;9.50;;
20002;SDS011;10162;41.600;23.806;2023-06-24T18:46:51;12.00;;;9.43;;
20002;SDS011;10162;41.600;23.806;2023-06-24T18:49:19;10.67;;;8.30;;
20002;SDS011;10162;41.600;23.806;2023-06-24T18:51:44;10.63;;;9.43;;
20002;SDS011;10162;41.600;23.806;2023-06-24T18:54:10;14.33;;;10.60;;
20002;SDS011;10162;41.600;23.806;2023-06-24T18:56:36;12.03;;;9.90;;
20002;SDS011;10162;41.600;23.806;2023-06-24T18:59:02;12.20;;;10.20;;
20002;SDS011;10162;41.600;23.806;2023-06-24T19:01:37;14.90;;;10.47;;
20002;SDS011;10162;41.600;23.806;2023-06-24T19:04:05;15.03;;;10.73;;
20002;SDS011;10162;41.600;23.806;2023-06-24T19:09:43;17.13;;;10.83;;
20002;SDS011;10162;41.600;23.806;2023-06-24T19:12:09;13.20;;;10.50;;
20002;SDS011;10162;41.600;23.806;2023-06-24T19:14:36;13.83;;;10.97;;
20002;SDS011;10162;41.600;23.806;2023-06-24T19:20:56;16.47;;;11.77;;
20002;SDS011;10162;41.600;23.806;2023-06-24T19:23:22;14.83;;;11.03;;
20002;SDS011;10162;41.600;23.806;2023-06-24T19:29:42;15.77;;;12.30;;
20002;SDS011;10162;41.600;23.806;2023-06-24T19:32:13;16.20;;;11.10;;
20002;SDS011;10162;41.600;23.806;2023-06-24T19:34:38;17.33;;;10.20;;
20002;SDS011;10162;41.600;23.806;2023-06-24T19:41:02;13.27;;;10.40;;
20002;SDS011;10162;41.600;23.806;2023-06-24T19:43:37;12.43;;;9.80;;
20002;SDS011;10162;41.600;23.806;2023-06-24T19:50:10;11.97;;;10.37;;
20002;SDS011;10162;41.600;23.806;2023-06-24T19:52:45;13.47;;;9.33;;
20002;SDS011;10162;41.600;23.806;2023-06-24T19:55:12;12.60;;;9.57;;
20002;SDS011;10162;41.600;23.806;2023-06-24T19:57:38;16.63;;;9.33;;
20002;SDS011;10162;41.600;23.806;2023-06-24T20:00:08;14.33;;;10.10;;
20002;SDS011;10162;41.600;23.806;2023-06-24T20:02:43;12.17;;;9.63;;
20002;SDS011;10162;41.600;23.806;2023-06-24T20:05:10;12.23;;;9.20;;
20002;SDS011;10162;41.600;23.806;2023-06-24T20:07:36;12.50;;;10.23;;
20002;SDS011;10162;41.600;23.806;2023-06-24T20:10:02;14.17;;;10.83;;
20002;SDS011;10162;41.600;23.806;2023-06-24T20:12:27;17.20;;;11.67;;
20002;SDS011;10162;41.600;23.806;2023-06-24T20:14:56;13.60;;;10.77;;
20002;SDS011;10162;41.600;23.806;2023-06-24T20:20:18;17.20;;;10.47;;
20002;SDS011;10162;41.600;23.806;2023-06-24T20:22:43;15.17;;;10.80;;
20002;SDS011;10162;41.600;23.806;2023-06-24T20:25:13;14.43;;;10.73;;
20002;SDS011;10162;41.600;23.806;2023-06-24T20:27:38;17.60;;;10.30;;
20002;SDS011;10162;41.600;23.806;2023-06-24T20:30:05;15.67;;;10.60;;
20002;SDS011;10162;41.600;23.806;2023-06-24T20:32:31;15.93;;;11.67;;
20002;SDS011;10162;41.600;23.806;2023-06-24T20:35:00;17.47;;;10.93;;
20002;SDS011;10162;41.600;23.806;2023-06-24T20:41:23;18.33;;;10.57;;
20002;SDS011;10162;41.600;23.806;2023-06-24T20:43:55;16.20;;;10.60;;
20002;SDS011;10162;41.600;23.806;2023-06-24T21:50:04;11.00;;;7.97;;
20002;SDS011;10162;41.600;23.806;2023-06-24T21:52:32;13.10;;;8.43;;
20002;SDS011;10162;41.600;23.806;2023-06-24T21:54:58;11.47;;;8.43;;
20002;SDS011;10162;41.600;23.806;2023-06-24T22:01:18;14.67;;;8.60;;
20002;SDS011;10162;41.600;23.806;2023-06-24T22:03:44;15.93;;;9.43;;
20002;SDS011;10162;41.600;23.806;2023-06-24T22:10:30;14.93;;;8.83;;
20002;SDS011;10162;41.600;23.806;2023-06-24T22:12:57;14.43;;;9.17;;
20002;SDS011;10162;41.600;23.806;2023-06-24T22:19:18;13.13;;;10.13;;
20002;SDS011;10162;41.600;23.806;2023-06-24T22:21:44;13.47;;;10.00;;
20002;SDS011;10162;41.600;23.806;2023-06-24T22:24:10;13.27;;;9.90;;
20002;SDS011;10162;41.600;23.806;2023-06-24T22:30:30;14.50;;;11.23;;
20002;SDS011;10162;41.600;23.806;2023-06-24T22:32:57;13.87;;;11.27;;
20002;SDS011;10162;41.600;23.806;2023-06-24T22:39:17;18.93;;;11.63;;
20002;SDS011;10162;41.600;23.806;2023-06-24T22:41:43;14.20;;;10.53;;
20002;SDS011;10162;41.600;23.806;2023-06-24T22:44:08;13.10;;;9.97;;
20002;SDS011;10162;41.600;23.806;2023-06-24T22:50:42;16.80;;;11.63;;
20002;SDS011;10162;41.600;23.806;2023-06-24T22:53:08;14.07;;;12.03;;
20002;SDS011;10162;41.600;23.806;2023-06-24T22:59:28;14.80;;;9.97;;
20002;SDS011;10162;41.600;23.806;2023-06-24T23:01:54;14.27;;;11.47;;
20002;SDS011;10162;41.600;23.806;2023-06-24T23:04:20;18.93;;;10.60;;
20002;SDS011;10162;41.600;23.806;2023-06-24T23:10:41;16.03;;;10.23;;
20002;SDS011;10162;41.600;23.806;2023-06-24T23:13:13;14.33;;;11.10;;
20002;SDS011;10162;41.600;23.806;2023-06-24T23:19:33;14.00;;;9.80;;
20002;SDS011;10162;41.600;23.806;2023-06-24T23:22:00;13.00;;;9.33;;
20002;SDS011;10162;41.600;23.806;2023-06-24T23:24:27;15.53;;;9.90;;
20002;SDS011;10162;41.600;23.806;2023-06-24T23:30:48;14.00;;;9.60;;
20002;SDS011;10162;41.600;23.806;2023-06-24T23:33:15;12.70;;;9.47;;
20002;SDS011;10162;41.600;23.806;2023-06-24T23:35:51;13.80;;;8.93;;
20002;SDS011;10162;41.600;23.806;2023-06-24T23:38:17;10.83;;;8.97;;
20002;SDS011;10162;41.600;23.806;2023-06-24T23:40:44;12.77;;;9.73;;
20002;SDS011;10162;41.600;23.806;2023-06-24T23:43:10;13.97;;;8.87;;
20002;SDS011;10162;41.600;23.806;2023-06-24T23:48:21;13.73;;;9.33;;